sensor_id;sensor_type;location;lat;lon;timestamp;P1;durP1;ratioP1;P2;durP2;ratioP2
79460;SDS011;68929;42.666;23.324;2023-07-16T00:02:21;12.68;;;11.07;;
79460;SDS011;68929;42.666;23.324;2023-07-16T00:04:46;15.45;;;11.38;;
79460;SDS011;68929;42.666;23.324;2023-07-16T00:07:12;11.98;;;10.70;;
79460;SDS011;68929;42.666;23.324;2023-07-16T00:09:37;14.55;;;10.20;;
79460;SDS011;68929;42.666;23.324;2023-07-16T00:12:03;12.73;;;10.57;;
79460;SDS011;68929;42.666;23.324;2023-07-16T00:14:28;12.13;;;9.70;;
79460;SDS011;68929;42.666;23.324;2023-07-16T00:16:54;17.30;;;9.63;;
79460;SDS011;68929;42.666;23.324;2023-07-16T00:19:19;11.25;;;9.70;;
79460;SDS011;68929;42.666;23.324;2023-07-16T00:21:44;13.25;;;9.63;;
79460;SDS011;68929;42.666;23.324;2023-07-16T00:24:10;10.30;;;9.00;;
79460;SDS011;68929;42.666;23.324;2023-07-16T00:26:35;9.98;;;8.75;;
79460;SDS011;68929;42.666;23.324;2023-07-16T00:29:00;14.25;;;9.18;;
79460;SDS011;68929;42.666;23.324;2023-07-16T00:31:26;11.63;;;9.55;;
79460;SDS011;68929;42.666;23.324;2023-07-16T00:33:51;15.93;;;9.18;;
79460;SDS011;68929;42.666;23.324;2023-07-16T00:36:16;13.63;;;9.68;;
79460;SDS011;68929;42.666;23.324;2023-07-16T00:38:42;9.85;;;8.50;;
79460;SDS011;68929;42.666;23.324;2023-07-16T00:41:10;13.63;;;8.85;;
79460;SDS011;68929;42.666;23.324;2023-07-16T00:43:35;12.57;;;8.52;;
79460;SDS011;68929;42.666;23.324;2023-07-16T00:46:00;12.23;;;8.60;;
79460;SDS011;68929;42.666;23.324;2023-07-16T00:48:26;10.52;;;7.97;;
79460;SDS011;68929;42.666;23.324;2023-07-16T00:50:52;13.85;;;8.45;;
79460;SDS011;68929;42.666;23.324;2023-07-16T00:53:19;14.98;;;8.85;;
79460;SDS011;68929;42.666;23.324;2023-07-16T00:55:45;14.27;;;8.48;;
79460;SDS011;68929;42.666;23.324;2023-07-16T00:58:11;10.18;;;8.13;;
79460;SDS011;68929;42.666;23.324;2023-07-16T01:00:37;9.30;;;8.07;;
79460;SDS011;68929;42.666;23.324;2023-07-16T01:03:04;12.05;;;8.73;;
79460;SDS011;68929;42.666;23.324;2023-07-16T01:06:35;10.13;;;7.80;;
79460;SDS011;68929;42.666;23.324;2023-07-16T01:08:49;9.68;;;7.47;;
79460;SDS011;68929;42.666;23.324;2023-07-16T01:11:28;8.63;;;7.72;;
79460;SDS011;68929;42.666;23.324;2023-07-16T01:13:54;8.10;;;7.15;;
79460;SDS011;68929;42.666;23.324;2023-07-16T01:16:21;8.75;;;7.85;;
79460;SDS011;68929;42.666;23.324;2023-07-16T01:18:48;10.32;;;7.40;;
79460;SDS011;68929;42.666;23.324;2023-07-16T01:21:14;9.85;;;7.68;;
79460;SDS011;68929;42.666;23.324;2023-07-16T01:32:07;11.23;;;7.15;;
79460;SDS011;68929;42.666;23.324;2023-07-16T01:34:34;10.85;;;7.43;;
79460;SDS011;68929;42.666;23.324;2023-07-16T01:37:01;10.73;;;7.13;;
79460;SDS011;68929;42.666;23.324;2023-07-16T01:39:27;9.23;;;7.50;;
79460;SDS011;68929;42.666;23.324;2023-07-16T01:41:54;9.88;;;7.22;;
79460;SDS011;68929;42.666;23.324;2023-07-16T01:44:19;10.60;;;7.20;;
79460;SDS011;68929;42.666;23.324;2023-07-16T01:46:46;10.32;;;7.68;;
79460;SDS011;68929;42.666;23.324;2023-07-16T01:49:22;9.15;;;7.38;;
79460;SDS011;68929;42.666;23.324;2023-07-16T01:51:48;8.18;;;7.38;;
79460;SDS011;68929;42.666;23.324;2023-07-16T01:54:13;12.10;;;7.47;;
79460;SDS011;68929;42.666;23.324;2023-07-16T01:56:38;15.75;;;7.78;;
79460;SDS011;68929;42.666;23.324;2023-07-16T01:59:04;9.07;;;6.93;;
79460;SDS011;68929;42.666;23.324;2023-07-16T02:01:29;10.82;;;7.38;;
79460;SDS011;68929;42.666;23.324;2023-07-16T02:03:54;10.43;;;7.15;;
79460;SDS011;68929;42.666;23.324;2023-07-16T02:06:20;10.90;;;6.97;;
79460;SDS011;68929;42.666;23.324;2023-07-16T02:08:45;15.45;;;7.25;;
79460;SDS011;68929;42.666;23.324;2023-07-16T02:11:10;8.13;;;6.53;;
79460;SDS011;68929;42.666;23.324;2023-07-16T02:13:36;10.35;;;6.70;;
79460;SDS011;68929;42.666;23.324;2023-07-16T02:16:01;13.68;;;6.30;;
79460;SDS011;68929;42.666;23.324;2023-07-16T02:18:27;10.30;;;6.85;;
79460;SDS011;68929;42.666;23.324;2023-07-16T02:20:52;10.23;;;6.53;;
79460;SDS011;68929;42.666;23.324;2023-07-16T02:23:17;11.30;;;6.97;;
79460;SDS011;68929;42.666;23.324;2023-07-16T02:25:42;9.63;;;6.95;;
79460;SDS011;68929;42.666;23.324;2023-07-16T02:28:08;7.20;;;6.40;;
79460;SDS011;68929;42.666;23.324;2023-07-16T02:30:33;7.47;;;6.78;;
79460;SDS011;68929;42.666;23.324;2023-07-16T02:32:58;7.40;;;6.20;;
79460;SDS011;68929;42.666;23.324;2023-07-16T02:35:24;9.35;;;6.57;;
79460;SDS011;68929;42.666;23.324;2023-07-16T02:37:49;8.60;;;6.45;;
79460;SDS011;68929;42.666;23.324;2023-07-16T02:40:14;8.07;;;6.70;;
79460;SDS011;68929;42.666;23.324;2023-07-16T02:42:40;12.80;;;6.85;;
79460;SDS011;68929;42.666;23.324;2023-07-16T02:45:05;9.38;;;6.40;;
79460;SDS011;68929;42.666;23.324;2023-07-16T02:47:31;8.63;;;6.40;;
79460;SDS011;68929;42.666;23.324;2023-07-16T02:49:57;7.50;;;6.25;;
79460;SDS011;68929;42.666;23.324;2023-07-16T02:52:22;7.97;;;6.45;;
79460;SDS011;68929;42.666;23.324;2023-07-16T02:54:47;10.07;;;6.35;;
79460;SDS011;68929;42.666;23.324;2023-07-16T02:57:13;7.35;;;6.38;;
79460;SDS011;68929;42.666;23.324;2023-07-16T02:59:38;14.43;;;6.65;;
79460;SDS011;68929;42.666;23.324;2023-07-16T03:02:03;7.15;;;6.30;;
79460;SDS011;68929;42.666;23.324;2023-07-16T03:04:29;6.60;;;5.72;;
79460;SDS011;68929;42.666;23.324;2023-07-16T03:06:54;6.95;;;6.25;;
79460;SDS011;68929;42.666;23.324;2023-07-16T03:09:19;9.30;;;6.53;;
79460;SDS011;68929;42.666;23.324;2023-07-16T03:11:45;9.85;;;6.30;;
79460;SDS011;68929;42.666;23.324;2023-07-16T03:14:10;6.55;;;5.90;;
79460;SDS011;68929;42.666;23.324;2023-07-16T03:16:35;8.30;;;6.28;;
79460;SDS011;68929;42.666;23.324;2023-07-16T03:19:01;8.63;;;6.45;;
79460;SDS011;68929;42.666;23.324;2023-07-16T03:21:26;7.40;;;6.15;;
79460;SDS011;68929;42.666;23.324;2023-07-16T03:23:51;9.85;;;6.45;;
79460;SDS011;68929;42.666;23.324;2023-07-16T03:26:17;8.38;;;6.55;;
79460;SDS011;68929;42.666;23.324;2023-07-16T03:28:42;7.45;;;6.55;;
79460;SDS011;68929;42.666;23.324;2023-07-16T03:31:07;11.35;;;6.28;;
79460;SDS011;68929;42.666;23.324;2023-07-16T03:33:33;11.23;;;6.30;;
79460;SDS011;68929;42.666;23.324;2023-07-16T03:35:58;8.63;;;6.30;;
79460;SDS011;68929;42.666;23.324;2023-07-16T03:38:23;8.02;;;5.80;;
79460;SDS011;68929;42.666;23.324;2023-07-16T03:40:49;6.80;;;6.20;;
79460;SDS011;68929;42.666;23.324;2023-07-16T03:43:15;7.35;;;6.28;;
79460;SDS011;68929;42.666;23.324;2023-07-16T03:45:41;8.35;;;6.10;;
79460;SDS011;68929;42.666;23.324;2023-07-16T03:48:06;7.15;;;5.93;;
79460;SDS011;68929;42.666;23.324;2023-07-16T03:50:32;7.70;;;6.70;;
79460;SDS011;68929;42.666;23.324;2023-07-16T03:52:58;6.00;;;5.50;;
79460;SDS011;68929;42.666;23.324;2023-07-16T03:55:24;8.10;;;6.25;;
79460;SDS011;68929;42.666;23.324;2023-07-16T03:57:49;6.68;;;5.80;;
79460;SDS011;68929;42.666;23.324;2023-07-16T04:00:15;9.63;;;6.03;;
79460;SDS011;68929;42.666;23.324;2023-07-16T04:02:40;6.80;;;5.72;;
79460;SDS011;68929;42.666;23.324;2023-07-16T04:05:06;7.07;;;5.88;;
79460;SDS011;68929;42.666;23.324;2023-07-16T04:07:31;6.80;;;5.88;;
79460;SDS011;68929;42.666;23.324;2023-07-16T04:09:57;6.05;;;5.28;;
79460;SDS011;68929;42.666;23.324;2023-07-16T04:12:22;8.52;;;5.88;;
79460;SDS011;68929;42.666;23.324;2023-07-16T04:14:47;6.82;;;5.13;;
79460;SDS011;68929;42.666;23.324;2023-07-16T04:17:13;6.28;;;5.60;;
79460;SDS011;68929;42.666;23.324;2023-07-16T04:19:38;9.40;;;5.40;;
79460;SDS011;68929;42.666;23.324;2023-07-16T04:22:04;7.13;;;5.13;;
79460;SDS011;68929;42.666;23.324;2023-07-16T04:24:30;6.80;;;5.63;;
79460;SDS011;68929;42.666;23.324;2023-07-16T04:26:56;18.88;;;6.28;;
79460;SDS011;68929;42.666;23.324;2023-07-16T04:29:22;7.30;;;5.50;;
79460;SDS011;68929;42.666;23.324;2023-07-16T04:31:48;7.97;;;5.65;;
79460;SDS011;68929;42.666;23.324;2023-07-16T04:34:13;9.70;;;6.45;;
79460;SDS011;68929;42.666;23.324;2023-07-16T04:36:38;5.40;;;5.00;;
79460;SDS011;68929;42.666;23.324;2023-07-16T04:39:04;7.18;;;4.85;;
79460;SDS011;68929;42.666;23.324;2023-07-16T04:41:30;5.38;;;4.88;;
79460;SDS011;68929;42.666;23.324;2023-07-16T04:43:55;6.07;;;5.00;;
79460;SDS011;68929;42.666;23.324;2023-07-16T04:46:20;5.20;;;4.57;;
79460;SDS011;68929;42.666;23.324;2023-07-16T04:48:46;11.93;;;5.47;;
79460;SDS011;68929;42.666;23.324;2023-07-16T04:51:11;11.30;;;5.55;;
79460;SDS011;68929;42.666;23.324;2023-07-16T04:53:36;5.97;;;5.03;;
79460;SDS011;68929;42.666;23.324;2023-07-16T04:56:02;6.28;;;5.00;;
79460;SDS011;68929;42.666;23.324;2023-07-16T04:58:27;5.75;;;5.15;;
79460;SDS011;68929;42.666;23.324;2023-07-16T05:00:53;5.53;;;4.78;;
79460;SDS011;68929;42.666;23.324;2023-07-16T05:03:18;7.05;;;6.00;;
79460;SDS011;68929;42.666;23.324;2023-07-16T05:05:43;9.70;;;5.38;;
79460;SDS011;68929;42.666;23.324;2023-07-16T05:08:09;6.35;;;5.38;;
79460;SDS011;68929;42.666;23.324;2023-07-16T05:10:34;5.57;;;5.07;;
79460;SDS011;68929;42.666;23.324;2023-07-16T05:12:59;7.80;;;5.60;;
79460;SDS011;68929;42.666;23.324;2023-07-16T05:15:25;6.60;;;6.00;;
79460;SDS011;68929;42.666;23.324;2023-07-16T05:17:50;11.65;;;5.57;;
79460;SDS011;68929;42.666;23.324;2023-07-16T05:20:16;5.57;;;5.07;;
79460;SDS011;68929;42.666;23.324;2023-07-16T05:22:41;7.47;;;5.40;;
79460;SDS011;68929;42.666;23.324;2023-07-16T05:25:06;5.55;;;5.03;;
79460;SDS011;68929;42.666;23.324;2023-07-16T05:27:32;5.93;;;5.40;;
79460;SDS011;68929;42.666;23.324;2023-07-16T05:29:57;7.97;;;5.40;;
79460;SDS011;68929;42.666;23.324;2023-07-16T05:32:23;6.90;;;5.50;;
79460;SDS011;68929;42.666;23.324;2023-07-16T05:34:48;8.10;;;5.90;;
79460;SDS011;68929;42.666;23.324;2023-07-16T05:37:13;5.80;;;5.20;;
79460;SDS011;68929;42.666;23.324;2023-07-16T05:39:39;11.85;;;6.57;;
79460;SDS011;68929;42.666;23.324;2023-07-16T05:42:04;7.57;;;5.93;;
79460;SDS011;68929;42.666;23.324;2023-07-16T05:44:30;9.93;;;5.93;;
79460;SDS011;68929;42.666;23.324;2023-07-16T05:46:55;11.88;;;6.32;;
79460;SDS011;68929;42.666;23.324;2023-07-16T05:49:21;9.35;;;6.45;;
79460;SDS011;68929;42.666;23.324;2023-07-16T05:51:46;11.57;;;6.30;;
79460;SDS011;68929;42.666;23.324;2023-07-16T05:54:15;6.95;;;5.88;;
79460;SDS011;68929;42.666;23.324;2023-07-16T05:56:40;9.70;;;6.63;;
79460;SDS011;68929;42.666;23.324;2023-07-16T05:59:05;10.70;;;5.45;;
79460;SDS011;68929;42.666;23.324;2023-07-16T06:01:30;11.50;;;6.15;;
79460;SDS011;68929;42.666;23.324;2023-07-16T06:03:56;6.22;;;5.55;;
79460;SDS011;68929;42.666;23.324;2023-07-16T06:06:21;9.35;;;5.85;;
79460;SDS011;68929;42.666;23.324;2023-07-16T06:08:47;9.40;;;6.65;;
79460;SDS011;68929;42.666;23.324;2023-07-16T06:13:43;7.70;;;6.10;;
79460;SDS011;68929;42.666;23.324;2023-07-16T06:16:08;10.68;;;6.00;;
79460;SDS011;68929;42.666;23.324;2023-07-16T06:18:33;9.63;;;7.05;;
79460;SDS011;68929;42.666;23.324;2023-07-16T06:20:59;7.30;;;6.55;;
79460;SDS011;68929;42.666;23.324;2023-07-16T06:23:24;7.28;;;6.35;;
79460;SDS011;68929;42.666;23.324;2023-07-16T06:25:53;10.90;;;7.35;;
79460;SDS011;68929;42.666;23.324;2023-07-16T06:28:19;13.23;;;7.65;;
79460;SDS011;68929;42.666;23.324;2023-07-16T06:30:45;7.03;;;6.32;;
79460;SDS011;68929;42.666;23.324;2023-07-16T06:33:10;7.65;;;6.63;;
79460;SDS011;68929;42.666;23.324;2023-07-16T06:35:35;18.00;;;7.57;;
79460;SDS011;68929;42.666;23.324;2023-07-16T06:38:01;10.13;;;6.40;;
79460;SDS011;68929;42.666;23.324;2023-07-16T06:40:28;11.48;;;7.45;;
79460;SDS011;68929;42.666;23.324;2023-07-16T06:42:53;10.10;;;7.07;;
79460;SDS011;68929;42.666;23.324;2023-07-16T06:45:19;8.15;;;6.30;;
79460;SDS011;68929;42.666;23.324;2023-07-16T06:47:44;7.35;;;6.57;;
79460;SDS011;68929;42.666;23.324;2023-07-16T06:50:10;7.85;;;6.55;;
79460;SDS011;68929;42.666;23.324;2023-07-16T06:52:35;7.28;;;6.57;;
79460;SDS011;68929;42.666;23.324;2023-07-16T06:55:01;10.85;;;6.82;;
79460;SDS011;68929;42.666;23.324;2023-07-16T06:57:26;12.63;;;6.88;;
79460;SDS011;68929;42.666;23.324;2023-07-16T06:59:51;7.95;;;6.05;;
79460;SDS011;68929;42.666;23.324;2023-07-16T07:02:17;7.57;;;5.90;;
79460;SDS011;68929;42.666;23.324;2023-07-16T07:04:43;7.72;;;6.40;;
79460;SDS011;68929;42.666;23.324;2023-07-16T07:07:08;11.13;;;7.50;;
79460;SDS011;68929;42.666;23.324;2023-07-16T07:09:34;7.43;;;6.40;;
79460;SDS011;68929;42.666;23.324;2023-07-16T07:11:59;9.80;;;6.82;;
79460;SDS011;68929;42.666;23.324;2023-07-16T07:14:25;9.10;;;6.90;;
79460;SDS011;68929;42.666;23.324;2023-07-16T07:16:50;9.98;;;6.57;;
79460;SDS011;68929;42.666;23.324;2023-07-16T07:19:15;18.83;;;7.30;;
79460;SDS011;68929;42.666;23.324;2023-07-16T07:21:41;7.93;;;5.82;;
79460;SDS011;68929;42.666;23.324;2023-07-16T07:24:06;8.15;;;6.20;;
79460;SDS011;68929;42.666;23.324;2023-07-16T07:26:31;9.80;;;6.78;;
79460;SDS011;68929;42.666;23.324;2023-07-16T07:28:57;8.70;;;7.20;;
79460;SDS011;68929;42.666;23.324;2023-07-16T07:31:22;8.27;;;6.78;;
79460;SDS011;68929;42.666;23.324;2023-07-16T07:33:48;10.55;;;6.93;;
79460;SDS011;68929;42.666;23.324;2023-07-16T07:36:13;9.43;;;6.70;;
79460;SDS011;68929;42.666;23.324;2023-07-16T07:38:38;11.23;;;6.57;;
79460;SDS011;68929;42.666;23.324;2023-07-16T07:41:07;9.10;;;6.18;;
79460;SDS011;68929;42.666;23.324;2023-07-16T07:43:32;7.95;;;5.90;;
79460;SDS011;68929;42.666;23.324;2023-07-16T07:45:58;8.65;;;6.13;;
79460;SDS011;68929;42.666;23.324;2023-07-16T07:48:23;8.38;;;5.85;;
79460;SDS011;68929;42.666;23.324;2023-07-16T07:50:48;11.07;;;6.57;;
79460;SDS011;68929;42.666;23.324;2023-07-16T07:53:14;12.30;;;6.07;;
79460;SDS011;68929;42.666;23.324;2023-07-16T07:55:40;12.35;;;7.00;;
79460;SDS011;68929;42.666;23.324;2023-07-16T07:58:07;9.38;;;6.40;;
79460;SDS011;68929;42.666;23.324;2023-07-16T08:00:33;11.98;;;6.50;;
79460;SDS011;68929;42.666;23.324;2023-07-16T08:02:58;8.75;;;5.90;;
79460;SDS011;68929;42.666;23.324;2023-07-16T08:05:23;7.00;;;6.15;;
79460;SDS011;68929;42.666;23.324;2023-07-16T08:07:49;9.15;;;6.00;;
79460;SDS011;68929;42.666;23.324;2023-07-16T08:10:14;11.32;;;6.05;;
79460;SDS011;68929;42.666;23.324;2023-07-16T08:12:40;7.78;;;6.20;;
79460;SDS011;68929;42.666;23.324;2023-07-16T08:15:05;8.50;;;6.77;;
79460;SDS011;68929;42.666;23.324;2023-07-16T08:17:33;9.98;;;6.53;;
79460;SDS011;68929;42.666;23.324;2023-07-16T08:19:58;11.68;;;6.95;;
79460;SDS011;68929;42.666;23.324;2023-07-16T08:22:23;10.18;;;6.72;;
79460;SDS011;68929;42.666;23.324;2023-07-16T08:24:51;10.88;;;6.15;;
79460;SDS011;68929;42.666;23.324;2023-07-16T08:27:16;11.63;;;6.75;;
79460;SDS011;68929;42.666;23.324;2023-07-16T08:29:43;12.40;;;7.15;;
79460;SDS011;68929;42.666;23.324;2023-07-16T08:32:09;8.25;;;7.05;;
79460;SDS011;68929;42.666;23.324;2023-07-16T08:34:34;7.23;;;6.23;;
79460;SDS011;68929;42.666;23.324;2023-07-16T08:36:59;8.13;;;6.80;;
79460;SDS011;68929;42.666;23.324;2023-07-16T08:39:25;10.23;;;7.00;;
79460;SDS011;68929;42.666;23.324;2023-07-16T08:41:50;10.73;;;7.50;;
79460;SDS011;68929;42.666;23.324;2023-07-16T08:44:15;8.83;;;6.87;;
79460;SDS011;68929;42.666;23.324;2023-07-16T08:46:41;11.18;;;7.25;;
79460;SDS011;68929;42.666;23.324;2023-07-16T08:49:07;17.70;;;7.32;;
79460;SDS011;68929;42.666;23.324;2023-07-16T08:51:34;10.30;;;7.65;;
79460;SDS011;68929;42.666;23.324;2023-07-16T08:54:00;9.18;;;7.95;;
79460;SDS011;68929;42.666;23.324;2023-07-16T08:56:26;9.85;;;7.25;;
79460;SDS011;68929;42.666;23.324;2023-07-16T08:58:52;9.65;;;7.10;;
79460;SDS011;68929;42.666;23.324;2023-07-16T09:01:21;7.88;;;7.20;;
79460;SDS011;68929;42.666;23.324;2023-07-16T09:03:46;8.95;;;7.80;;
79460;SDS011;68929;42.666;23.324;2023-07-16T09:06:11;11.32;;;8.95;;
79460;SDS011;68929;42.666;23.324;2023-07-16T09:08:37;12.85;;;8.07;;
79460;SDS011;68929;42.666;23.324;2023-07-16T09:11:02;11.18;;;8.30;;
79460;SDS011;68929;42.666;23.324;2023-07-16T09:13:28;9.68;;;7.72;;
79460;SDS011;68929;42.666;23.324;2023-07-16T09:15:55;8.05;;;7.25;;
79460;SDS011;68929;42.666;23.324;2023-07-16T09:18:22;11.05;;;7.88;;
79460;SDS011;68929;42.666;23.324;2023-07-16T09:20:57;8.77;;;7.70;;
79460;SDS011;68929;42.666;23.324;2023-07-16T09:23:24;10.38;;;7.47;;
79460;SDS011;68929;42.666;23.324;2023-07-16T09:25:51;12.73;;;8.63;;
79460;SDS011;68929;42.666;23.324;2023-07-16T09:28:18;12.07;;;8.07;;
79460;SDS011;68929;42.666;23.324;2023-07-16T09:30:44;12.02;;;8.77;;
79460;SDS011;68929;42.666;23.324;2023-07-16T09:33:19;12.00;;;8.32;;
79460;SDS011;68929;42.666;23.324;2023-07-16T09:35:47;11.50;;;8.23;;
79460;SDS011;68929;42.666;23.324;2023-07-16T09:38:14;14.63;;;8.95;;
79460;SDS011;68929;42.666;23.324;2023-07-16T09:40:39;11.98;;;8.70;;
79460;SDS011;68929;42.666;23.324;2023-07-16T09:43:07;11.52;;;8.20;;
79460;SDS011;68929;42.666;23.324;2023-07-16T09:45:33;13.90;;;8.60;;
79460;SDS011;68929;42.666;23.324;2023-07-16T09:47:59;10.73;;;8.13;;
79460;SDS011;68929;42.666;23.324;2023-07-16T09:50:24;10.85;;;8.13;;
79460;SDS011;68929;42.666;23.324;2023-07-16T09:52:53;14.10;;;8.57;;
79460;SDS011;68929;42.666;23.324;2023-07-16T09:55:21;14.02;;;8.55;;
79460;SDS011;68929;42.666;23.324;2023-07-16T09:57:48;9.00;;;8.10;;
79460;SDS011;68929;42.666;23.324;2023-07-16T10:00:15;12.70;;;8.57;;
79460;SDS011;68929;42.666;23.324;2023-07-16T10:02:43;10.40;;;8.23;;
79460;SDS011;68929;42.666;23.324;2023-07-16T10:05:16;13.88;;;8.95;;
79460;SDS011;68929;42.666;23.324;2023-07-16T10:07:43;13.50;;;7.90;;
79460;SDS011;68929;42.666;23.324;2023-07-16T10:10:15;11.60;;;8.35;;
79460;SDS011;68929;42.666;23.324;2023-07-16T10:12:42;9.40;;;7.50;;
79460;SDS011;68929;42.666;23.324;2023-07-16T10:15:08;10.32;;;8.15;;
79460;SDS011;68929;42.666;23.324;2023-07-16T10:17:37;10.88;;;8.05;;
79460;SDS011;68929;42.666;23.324;2023-07-16T10:24:57;10.03;;;8.00;;
79460;SDS011;68929;42.666;23.324;2023-07-16T10:27:27;9.88;;;8.30;;
79460;SDS011;68929;42.666;23.324;2023-07-16T10:32:20;10.52;;;7.70;;
79460;SDS011;68929;42.666;23.324;2023-07-16T10:34:45;11.95;;;8.25;;
79460;SDS011;68929;42.666;23.324;2023-07-16T10:37:11;11.27;;;7.70;;
79460;SDS011;68929;42.666;23.324;2023-07-16T10:39:38;10.37;;;7.60;;
79460;SDS011;68929;42.666;23.324;2023-07-16T10:42:11;9.32;;;7.65;;
79460;SDS011;68929;42.666;23.324;2023-07-16T10:44:36;9.40;;;7.80;;
79460;SDS011;68929;42.666;23.324;2023-07-16T10:47:02;10.67;;;7.47;;
79460;SDS011;68929;42.666;23.324;2023-07-16T10:49:27;12.48;;;8.02;;
79460;SDS011;68929;42.666;23.324;2023-07-16T10:51:53;10.07;;;7.40;;
79460;SDS011;68929;42.666;23.324;2023-07-16T10:54:19;10.82;;;7.45;;
79460;SDS011;68929;42.666;23.324;2023-07-16T10:56:48;10.63;;;7.80;;
79460;SDS011;68929;42.666;23.324;2023-07-16T10:59:18;8.43;;;7.22;;
79460;SDS011;68929;42.666;23.324;2023-07-16T11:01:43;8.50;;;7.00;;
79460;SDS011;68929;42.666;23.324;2023-07-16T11:04:09;12.98;;;8.60;;
79460;SDS011;68929;42.666;23.324;2023-07-16T11:06:34;11.13;;;7.90;;
79460;SDS011;68929;42.666;23.324;2023-07-16T11:09:13;13.90;;;8.05;;
79460;SDS011;68929;42.666;23.324;2023-07-16T11:11:39;10.73;;;7.72;;
79460;SDS011;68929;42.666;23.324;2023-07-16T11:14:05;13.05;;;7.80;;
79460;SDS011;68929;42.666;23.324;2023-07-16T11:16:35;13.27;;;7.72;;
79460;SDS011;68929;42.666;23.324;2023-07-16T11:19:04;13.10;;;7.88;;
79460;SDS011;68929;42.666;23.324;2023-07-16T11:21:30;10.77;;;8.45;;
79460;SDS011;68929;42.666;23.324;2023-07-16T11:24:11;11.20;;;7.90;;
79460;SDS011;68929;42.666;23.324;2023-07-16T11:26:37;9.75;;;7.57;;
79460;SDS011;68929;42.666;23.324;2023-07-16T11:29:13;11.88;;;7.60;;
79460;SDS011;68929;42.666;23.324;2023-07-16T11:31:39;11.70;;;7.80;;
79460;SDS011;68929;42.666;23.324;2023-07-16T11:34:06;8.15;;;7.32;;
79460;SDS011;68929;42.666;23.324;2023-07-16T11:36:34;11.32;;;7.55;;
79460;SDS011;68929;42.666;23.324;2023-07-16T11:39:02;14.95;;;8.20;;
79460;SDS011;68929;42.666;23.324;2023-07-16T11:41:29;9.48;;;7.95;;
79460;SDS011;68929;42.666;23.324;2023-07-16T11:43:54;12.35;;;7.30;;
79460;SDS011;68929;42.666;23.324;2023-07-16T11:46:24;9.70;;;6.88;;
79460;SDS011;68929;42.666;23.324;2023-07-16T11:48:50;10.63;;;6.87;;
79460;SDS011;68929;42.666;23.324;2023-07-16T11:51:15;9.52;;;7.60;;
79460;SDS011;68929;42.666;23.324;2023-07-16T11:53:40;11.00;;;7.07;;
79460;SDS011;68929;42.666;23.324;2023-07-16T11:56:11;12.37;;;7.10;;
79460;SDS011;68929;42.666;23.324;2023-07-16T11:58:43;7.82;;;7.00;;
79460;SDS011;68929;42.666;23.324;2023-07-16T12:01:09;10.90;;;7.00;;
79460;SDS011;68929;42.666;23.324;2023-07-16T12:03:34;8.85;;;7.38;;
79460;SDS011;68929;42.666;23.324;2023-07-16T12:06:00;9.18;;;7.05;;
79460;SDS011;68929;42.666;23.324;2023-07-16T12:08:26;8.18;;;7.40;;
79460;SDS011;68929;42.666;23.324;2023-07-16T12:10:51;9.80;;;7.13;;
79460;SDS011;68929;42.666;23.324;2023-07-16T12:13:16;9.07;;;7.33;;
79460;SDS011;68929;42.666;23.324;2023-07-16T12:15:42;12.80;;;7.40;;
79460;SDS011;68929;42.666;23.324;2023-07-16T12:18:07;10.03;;;6.80;;
79460;SDS011;68929;42.666;23.324;2023-07-16T12:20:33;18.85;;;7.25;;
79460;SDS011;68929;42.666;23.324;2023-07-16T12:22:59;7.97;;;7.03;;
79460;SDS011;68929;42.666;23.324;2023-07-16T12:25:25;8.70;;;7.07;;
79460;SDS011;68929;42.666;23.324;2023-07-16T12:27:50;9.05;;;6.88;;
79460;SDS011;68929;42.666;23.324;2023-07-16T12:30:18;11.07;;;7.30;;
79460;SDS011;68929;42.666;23.324;2023-07-16T12:32:43;8.02;;;6.93;;
79460;SDS011;68929;42.666;23.324;2023-07-16T12:35:09;7.67;;;6.87;;
79460;SDS011;68929;42.666;23.324;2023-07-16T12:37:34;10.65;;;7.05;;
79460;SDS011;68929;42.666;23.324;2023-07-16T12:40:00;9.70;;;7.27;;
79460;SDS011;68929;42.666;23.324;2023-07-16T12:42:25;8.30;;;6.37;;
79460;SDS011;68929;42.666;23.324;2023-07-16T12:44:50;7.23;;;6.50;;
79460;SDS011;68929;42.666;23.324;2023-07-16T12:47:16;8.27;;;6.97;;
79460;SDS011;68929;42.666;23.324;2023-07-16T12:49:41;8.80;;;6.77;;
79460;SDS011;68929;42.666;23.324;2023-07-16T12:52:06;11.40;;;7.50;;
79460;SDS011;68929;42.666;23.324;2023-07-16T12:54:32;7.88;;;6.85;;
79460;SDS011;68929;42.666;23.324;2023-07-16T12:56:58;11.30;;;6.70;;
79460;SDS011;68929;42.666;23.324;2023-07-16T12:59:23;10.27;;;6.60;;
79460;SDS011;68929;42.666;23.324;2023-07-16T13:01:49;9.98;;;6.18;;
79460;SDS011;68929;42.666;23.324;2023-07-16T13:04:15;8.73;;;6.13;;
79460;SDS011;68929;42.666;23.324;2023-07-16T13:06:40;10.50;;;6.43;;
79460;SDS011;68929;42.666;23.324;2023-07-16T13:09:07;8.45;;;6.40;;
79460;SDS011;68929;42.666;23.324;2023-07-16T13:11:32;10.07;;;6.30;;
79460;SDS011;68929;42.666;23.324;2023-07-16T13:13:57;10.97;;;6.37;;
79460;SDS011;68929;42.666;23.324;2023-07-16T13:16:23;9.50;;;7.15;;
79460;SDS011;68929;42.666;23.324;2023-07-16T13:18:48;8.33;;;6.43;;
79460;SDS011;68929;42.666;23.324;2023-07-16T13:21:14;7.50;;;6.50;;
79460;SDS011;68929;42.666;23.324;2023-07-16T13:23:39;9.43;;;6.57;;
79460;SDS011;68929;42.666;23.324;2023-07-16T13:26:04;7.17;;;6.47;;
79460;SDS011;68929;42.666;23.324;2023-07-16T13:28:30;9.83;;;7.07;;
79460;SDS011;68929;42.666;23.324;2023-07-16T13:30:55;8.50;;;6.60;;
79460;SDS011;68929;42.666;23.324;2023-07-16T13:33:20;9.52;;;6.78;;
79460;SDS011;68929;42.666;23.324;2023-07-16T13:35:46;10.32;;;7.00;;
79460;SDS011;68929;42.666;23.324;2023-07-16T13:38:12;9.67;;;6.47;;
79460;SDS011;68929;42.666;23.324;2023-07-16T13:40:37;7.93;;;6.53;;
79460;SDS011;68929;42.666;23.324;2023-07-16T13:43:02;10.17;;;6.40;;
79460;SDS011;68929;42.666;23.324;2023-07-16T13:45:28;13.35;;;6.88;;
79460;SDS011;68929;42.666;23.324;2023-07-16T13:47:53;9.50;;;7.10;;
79460;SDS011;68929;42.666;23.324;2023-07-16T13:50:20;10.07;;;6.32;;
79460;SDS011;68929;42.666;23.324;2023-07-16T13:52:46;8.48;;;6.45;;
79460;SDS011;68929;42.666;23.324;2023-07-16T13:55:11;8.02;;;6.65;;
79460;SDS011;68929;42.666;23.324;2023-07-16T13:57:37;11.57;;;8.05;;
79460;SDS011;68929;42.666;23.324;2023-07-16T14:00:02;9.65;;;7.47;;
79460;SDS011;68929;42.666;23.324;2023-07-16T14:02:29;8.32;;;7.53;;
79460;SDS011;68929;42.666;23.324;2023-07-16T14:04:55;10.35;;;7.55;;
79460;SDS011;68929;42.666;23.324;2023-07-16T14:07:20;11.85;;;8.25;;
79460;SDS011;68929;42.666;23.324;2023-07-16T14:09:46;10.57;;;7.60;;
79460;SDS011;68929;42.666;23.324;2023-07-16T14:12:11;9.57;;;7.93;;
79460;SDS011;68929;42.666;23.324;2023-07-16T14:14:36;10.43;;;7.90;;
79460;SDS011;68929;42.666;23.324;2023-07-16T14:17:02;9.02;;;7.65;;
79460;SDS011;68929;42.666;23.324;2023-07-16T14:19:28;10.02;;;7.90;;
79460;SDS011;68929;42.666;23.324;2023-07-16T14:21:54;9.50;;;7.90;;
79460;SDS011;68929;42.666;23.324;2023-07-16T14:24:20;8.52;;;7.28;;
79460;SDS011;68929;42.666;23.324;2023-07-16T14:26:45;13.07;;;8.10;;
79460;SDS011;68929;42.666;23.324;2023-07-16T14:29:11;10.75;;;7.90;;
79460;SDS011;68929;42.666;23.324;2023-07-16T14:31:37;11.35;;;7.68;;
79460;SDS011;68929;42.666;23.324;2023-07-16T14:34:02;10.50;;;7.53;;
79460;SDS011;68929;42.666;23.324;2023-07-16T14:36:27;9.88;;;7.18;;
79460;SDS011;68929;42.666;23.324;2023-07-16T14:38:53;16.58;;;8.00;;
79460;SDS011;68929;42.666;23.324;2023-07-16T14:41:19;13.75;;;8.40;;